sensor_id;sensor_type;location;lat;lon;timestamp;pressure;altitude;pressure_sealevel;temperature;humidity
8894;BME280;4483;48.622;9.230;2022-11-15T00:01:52;97713.00;;;4.98;100.00
8894;BME280;4483;48.622;9.230;2022-11-15T00:04:19;97707.06;;;4.99;100.00
8894;BME280;4483;48.622;9.230;2022-11-15T00:06:46;97711.28;;;5.00;100.00
8894;BME280;4483;48.622;9.230;2022-11-15T00:09:14;97710.47;;;4.98;100.00
8894;BME280;4483;48.622;9.230;2022-11-15T00:11:40;97702.00;;;4.96;100.00
8894;BME280;4483;48.622;9.230;2022-11-15T00:14:07;97696.97;;;4.93;100.00
8894;BME280;4483;48.622;9.230;2022-11-15T00:16:34;97698.66;;;4.93;100.00
8894;BME280;4483;48.622;9.230;2022-11-15T00:19:00;97701.25;;;4.91;100.00
8894;BME280;4483;48.622;9.230;2022-11-15T00:21:27;97698.72;;;4.90;100.00
8894;BME280;4483;48.622;9.230;2022-11-15T00:23:53;97696.22;;;4.88;100.00
8894;BME280;4483;48.622;9.230;2022-11-15T00:26:21;97690.38;;;4.83;100.00
8894;BME280;4483;48.622;9.230;2022-11-15T00:28:48;97689.53;;;4.83;100.00
8894;BME280;4483;48.622;9.230;2022-11-15T00:31:15;97684.47;;;4.80;100.00
8894;BME280;4483;48.622;9.230;2022-11-15T00:33:43;97689.59;;;4.78;100.00
8894;BME280;4483;48.622;9.230;2022-11-15T00:36:10;97679.22;;;4.87;100.00
8894;BME280;4483;48.622;9.230;2022-11-15T00:38:38;97679.34;;;4.81;100.00
8894;BME280;4483;48.622;9.230;2022-11-15T00:41:07;97676.81;;;4.80;100.00
8894;BME280;4483;48.622;9.230;2022-11-15T00:43:35;97674.38;;;4.75;100.00
8894;BME280;4483;48.622;9.230;2022-11-15T00:46:02;97680.31;;;4.76;100.00
8894;BME280;4483;48.622;9.230;2022-11-15T00:48:29;97679.47;;;4.75;100.00
8894;BME280;4483;48.622;9.230;2022-11-15T00:50:57;97670.16;;;4.73;100.00
8894;BME280;4483;48.622;9.230;2022-11-15T00:53:23;97675.25;;;4.73;100.00
8894;BME280;4483;48.622;9.230;2022-11-15T00:55:50;97671.88;;;4.72;100.00
8894;BME280;4483;48.622;9.230;2022-11-15T00:58:17;97657.47;;;4.70;100.00
8894;BME280;4483;48.622;9.230;2022-11-15T01:00:45;97667.72;;;4.68;100.00
8894;BME280;4483;48.622;9.230;2022-11-15T01:03:11;97666.06;;;4.66;100.00
8894;BME280;4483;48.622;9.230;2022-11-15T01:05:38;97662.72;;;4.62;100.00
8894;BME280;4483;48.622;9.230;2022-11-15T01:08:04;97667.81;;;4.62;100.00
8894;BME280;4483;48.622;9.230;2022-11-15T01:10:31;97666.16;;;4.61;100.00
8894;BME280;4483;48.622;9.230;2022-11-15T01:12:58;97656.03;;;4.57;100.00
8894;BME280;4483;48.622;9.230;2022-11-15T01:15:24;97653.47;;;4.57;100.00
8894;BME280;4483;48.622;9.230;2022-11-15T01:17:52;97657.72;;;4.56;100.00
8894;BME280;4483;48.622;9.230;2022-11-15T01:20:20;97662.00;;;4.56;100.00
8894;BME280;4483;48.622;9.230;2022-11-15T01:22:46;97653.44;;;4.58;100.00
8894;BME280;4483;48.622;9.230;2022-11-15T01:25:13;97660.34;;;4.53;100.00
8894;BME280;4483;48.622;9.230;2022-11-15T01:27:40;97654.44;;;4.51;100.00
8894;BME280;4483;48.622;9.230;2022-11-15T01:30:07;97655.28;;;4.52;100.00
8894;BME280;4483;48.622;9.230;2022-11-15T01:32:34;97655.31;;;4.49;100.00
8894;BME280;4483;48.622;9.230;2022-11-15T01:35:03;97644.34;;;4.47;100.00
8894;BME280;4483;48.622;9.230;2022-11-15T01:37:29;97654.56;;;4.45;100.00
8894;BME280;4483;48.622;9.230;2022-11-15T01:39:56;97651.16;;;4.46;100.00
8894;BME280;4483;48.622;9.230;2022-11-15T01:42:23;97651.16;;;4.46;100.00
8894;BME280;4483;48.622;9.230;2022-11-15T01:44:50;97645.19;;;4.46;100.00
8894;BME280;4483;48.622;9.230;2022-11-15T01:47:21;97642.69;;;4.44;100.00
8894;BME280;4483;48.622;9.230;2022-11-15T01:49:53;97646.06;;;4.45;100.00
8894;BME280;4483;48.622;9.230;2022-11-15T01:52:24;97640.97;;;4.43;100.00
8894;BME280;4483;48.622;9.230;2022-11-15T01:54:56;97643.59;;;4.40;100.00
8894;BME280;4483;48.622;9.230;2022-11-15T01:57:23;97628.31;;;4.40;100.00
8894;BME280;4483;48.622;9.230;2022-11-15T01:59:50;97630.03;;;4.38;100.00
8894;BME280;4483;48.622;9.230;2022-11-15T02:02:17;97635.94;;;4.40;100.00
8894;BME280;4483;48.622;9.230;2022-11-15T02:04:46;97634.28;;;4.39;100.00
8894;BME280;4483;48.622;9.230;2022-11-15T02:07:15;97635.13;;;4.38;100.00
8894;BME280;4483;48.622;9.230;2022-11-15T02:09:45;97627.47;;;4.38;100.00
8894;BME280;4483;48.622;9.230;2022-11-15T02:12:14;97629.22;;;4.36;100.00
8894;BME280;4483;48.622;9.230;2022-11-15T02:14:44;97625.88;;;4.34;100.00
8894;BME280;4483;48.622;9.230;2022-11-15T02:17:28;97622.50;;;4.34;100.00
8894;BME280;4483;48.622;9.230;2022-11-15T02:20:27;97620.91;;;4.28;100.00
8894;BME280;4483;48.622;9.230;2022-11-15T02:23:09;97612.47;;;4.25;100.00
8894;BME280;4483;48.622;9.230;2022-11-15T02:25:48;97614.25;;;4.21;100.00
8894;BME280;4483;48.622;9.230;2022-11-15T02:31:15;97605.78;;;4.18;100.00
8894;BME280;4483;48.622;9.230;2022-11-15T02:33:51;97600.75;;;4.15;100.00
8894;BME280;4483;48.622;9.230;2022-11-15T02:36:26;97601.59;;;4.15;100.00
8894;BME280;4483;48.622;9.230;2022-11-15T02:39:00;97597.44;;;4.11;100.00
8894;BME280;4483;48.622;9.230;2022-11-15T02:41:31;97598.22;;;4.15;100.00
8894;BME280;4483;48.622;9.230;2022-11-15T02:44:04;97591.41;;;4.15;100.00
8894;BME280;4483;48.622;9.230;2022-11-15T02:46:36;97587.16;;;4.16;100.00
8894;BME280;4483;48.622;9.230;2022-11-15T02:49:23;97591.41;;;4.15;100.00
8894;BME280;4483;48.622;9.230;2022-11-15T02:51:52;97582.06;;;4.14;100.00
8894;BME280;4483;48.622;9.230;2022-11-15T02:54:22;97585.41;;;4.16;100.00
8894;BME280;4483;48.622;9.230;2022-11-15T02:56:51;97576.06;;;4.17;100.00
8894;BME280;4483;48.622;9.230;2022-11-15T02:59:33;97572.63;;;4.18;100.00
8894;BME280;4483;48.622;9.230;2022-11-15T03:02:18;97579.41;;;4.20;100.00
8894;BME280;4483;48.622;9.230;2022-11-15T03:04:53;97578.53;;;4.21;100.00
8894;BME280;4483;48.622;9.230;2022-11-15T03:07:26;97574.34;;;4.19;100.00
8894;BME280;4483;48.622;9.230;2022-11-15T03:10:00;97582.69;;;4.25;100.00
8894;BME280;4483;48.622;9.230;2022-11-15T03:12:34;97574.22;;;4.25;100.00
8894;BME280;4483;48.622;9.230;2022-11-15T03:15:07;97575.03;;;4.25;100.00
8894;BME280;4483;48.622;9.230;2022-11-15T03:17:40;97561.53;;;4.22;100.00
8894;BME280;4483;48.622;9.230;2022-11-15T03:20:14;97565.75;;;4.23;100.00
8894;BME280;4483;48.622;9.230;2022-11-15T03:22:44;97565.81;;;4.20;100.00
8894;BME280;4483;48.622;9.230;2022-11-15T03:25:16;97559.03;;;4.19;100.00
8894;BME280;4483;48.622;9.230;2022-11-15T03:27:48;97554.81;;;4.16;100.00
8894;BME280;4483;48.622;9.230;2022-11-15T03:30:17;97553.16;;;4.15;100.00
8894;BME280;4483;48.622;9.230;2022-11-15T03:32:48;97553.19;;;4.14;100.00
8894;BME280;4483;48.622;9.230;2022-11-15T03:35:19;97548.09;;;4.14;100.00
8894;BME280;4483;48.622;9.230;2022-11-15T03:37:50;97546.38;;;4.14;100.00
8894;BME280;4483;48.622;9.230;2022-11-15T03:40:23;97547.19;;;4.16;100.00
8894;BME280;4483;48.622;9.230;2022-11-15T03:42:56;97540.38;;;4.17;100.00
8894;BME280;4483;48.622;9.230;2022-11-15T03:45:28;97542.94;;;4.17;100.00
8894;BME280;4483;48.622;9.230;2022-11-15T03:48:01;97542.84;;;4.20;100.00
8894;BME280;4483;48.622;9.230;2022-11-15T03:50:31;97538.59;;;4.20;100.00
8894;BME280;4483;48.622;9.230;2022-11-15T03:52:58;97532.66;;;4.21;100.00
8894;BME280;4483;48.622;9.230;2022-11-15T03:55:25;97535.19;;;4.21;100.00
8894;BME280;4483;48.622;9.230;2022-11-15T03:57:54;97534.38;;;4.19;100.00
8894;BME280;4483;48.622;9.230;2022-11-15T04:00:23;97534.44;;;4.16;100.00
8894;BME280;4483;48.622;9.230;2022-11-15T04:02:50;97536.09;;;4.19;100.00
8894;BME280;4483;48.622;9.230;2022-11-15T04:05:18;97534.50;;;4.13;100.00
8894;BME280;4483;48.622;9.230;2022-11-15T04:07:44;97537.16;;;4.07;100.00
8894;BME280;4483;48.622;9.230;2022-11-15T04:10:12;97530.44;;;4.03;100.00
8894;BME280;4483;48.622;9.230;2022-11-15T04:12:40;97531.31;;;4.02;100.00
8894;BME280;4483;48.622;9.230;2022-11-15T04:15:11;97529.63;;;4.02;100.00
8894;BME280;4483;48.622;9.230;2022-11-15T04:17:40;97533.88;;;4.02;100.00
8894;BME280;4483;48.622;9.230;2022-11-15T04:20:10;97527.94;;;4.01;100.00
8894;BME280;4483;48.622;9.230;2022-11-15T04:22:56;97533.94;;;3.99;100.00
8894;BME280;4483;48.622;9.230;2022-11-15T04:25:41;97532.22;;;3.99;100.00
8894;BME280;4483;48.622;9.230;2022-11-15T04:28:09;97528.03;;;3.97;100.00
8894;BME280;4483;48.622;9.230;2022-11-15T04:30:36;97527.13;;;4.01;100.00
8894;BME280;4483;48.622;9.230;2022-11-15T04:33:02;97531.31;;;4.02;100.00
8894;BME280;4483;48.622;9.230;2022-11-15T04:35:29;97528.78;;;4.02;100.00
8894;BME280;4483;48.622;9.230;2022-11-15T04:37:58;97526.22;;;4.02;100.00
8894;BME280;4483;48.622;9.230;2022-11-15T04:40:25;97527.97;;;4.00;100.00
8894;BME280;4483;48.622;9.230;2022-11-15T04:42:51;97525.53;;;3.95;100.00
8894;BME280;4483;48.622;9.230;2022-11-15T04:45:18;97526.44;;;3.91;100.00
8894;BME280;4483;48.622;9.230;2022-11-15T04:47:45;97518.03;;;3.88;100.00
8894;BME280;4483;48.622;9.230;2022-11-15T04:50:13;97512.13;;;3.86;100.00
8894;BME280;4483;48.622;9.230;2022-11-15T04:52:40;97512.97;;;3.85;100.00
8894;BME280;4483;48.622;9.230;2022-11-15T04:55:09;97510.44;;;3.83;100.00
8894;BME280;4483;48.622;9.230;2022-11-15T04:57:36;97513.88;;;3.82;100.00
8894;BME280;4483;48.622;9.230;2022-11-15T05:00:04;97507.94;;;3.82;100.00
8894;BME280;4483;48.622;9.230;2022-11-15T05:02:31;97507.09;;;3.81;100.00
8894;BME280;4483;48.622;9.230;2022-11-15T05:05:12;97497.78;;;3.80;100.00
8894;BME280;4483;48.622;9.230;2022-11-15T05:07:39;97498.59;;;3.81;100.00
8894;BME280;4483;48.622;9.230;2022-11-15T05:10:06;97501.16;;;3.82;100.00
8894;BME280;4483;48.622;9.230;2022-11-15T05:12:34;97501.16;;;3.81;100.00
8894;BME280;4483;48.622;9.230;2022-11-15T05:15:01;97499.47;;;3.80;100.00
8894;BME280;4483;48.622;9.230;2022-11-15T05:17:28;97502.06;;;3.78;100.00
8894;BME280;4483;48.622;9.230;2022-11-15T05:19:54;97501.22;;;3.78;100.00
8894;BME280;4483;48.622;9.230;2022-11-15T05:22:22;97502.91;;;3.77;100.00
8894;BME280;4483;48.622;9.230;2022-11-15T05:24:48;97509.69;;;3.80;100.00
8894;BME280;4483;48.622;9.230;2022-11-15T05:27:15;97507.97;;;3.80;100.00
8894;BME280;4483;48.622;9.230;2022-11-15T05:29:43;97505.41;;;3.82;100.00
8894;BME280;4483;48.622;9.230;2022-11-15T05:32:11;97503.69;;;3.82;100.00
8894;BME280;4483;48.622;9.230;2022-11-15T05:34:38;97506.25;;;3.81;100.00
8894;BME280;4483;48.622;9.230;2022-11-15T05:37:05;97504.50;;;3.83;100.00
8894;BME280;4483;48.622;9.230;2022-11-15T05:39:32;97494.31;;;3.84;100.00
8894;BME280;4483;48.622;9.230;2022-11-15T05:42:01;97495.94;;;3.87;100.00
8894;BME280;4483;48.622;9.230;2022-11-15T05:44:31;97494.22;;;3.89;100.00
8894;BME280;4483;48.622;9.230;2022-11-15T05:46:59;97493.34;;;3.88;100.00
8894;BME280;4483;48.622;9.230;2022-11-15T05:49:30;97491.69;;;3.87;100.00
8894;BME280;4483;48.622;9.230;2022-11-15T05:51:58;97494.13;;;3.92;100.00
8894;BME280;4483;48.622;9.230;2022-11-15T05:54:25;97480.53;;;3.93;100.00
8894;BME280;4483;48.622;9.230;2022-11-15T05:56:52;97488.16;;;3.94;100.00
8894;BME280;4483;48.622;9.230;2022-11-15T05:59:21;97488.97;;;3.96;100.00
8894;BME280;4483;48.622;9.230;2022-11-15T06:01:48;97488.94;;;3.98;100.00
8894;BME280;4483;48.622;9.230;2022-11-15T06:04:16;97483.81;;;3.98;100.00
8894;BME280;4483;48.622;9.230;2022-11-15T06:06:42;97489.81;;;3.97;100.00
8894;BME280;4483;48.622;9.230;2022-11-15T06:09:09;97492.34;;;3.97;100.00
8894;BME280;4483;48.622;9.230;2022-11-15T06:11:35;97488.97;;;3.96;100.00
8894;BME280;4483;48.622;9.230;2022-11-15T06:14:02;97496.59;;;3.96;100.00
8894;BME280;4483;48.622;9.230;2022-11-15T06:16:29;97496.56;;;3.98;100.00
8894;BME280;4483;48.622;9.230;2022-11-15T06:18:56;97489.81;;;3.97;100.00
8894;BME280;4483;48.622;9.230;2022-11-15T06:21:24;97495.75;;;3.96;100.00
8894;BME280;4483;48.622;9.230;2022-11-15T06:23:53;97500.81;;;3.99;100.00
8894;BME280;4483;48.622;9.230;2022-11-15T06:26:19;97510.16;;;3.98;100.00
8894;BME280;4483;48.622;9.230;2022-11-15T06:28:46;97499.19;;;3.95;100.00
8894;BME280;4483;48.622;9.230;2022-11-15T06:31:13;97503.41;;;3.96;100.00
8894;BME280;4483;48.622;9.230;2022-11-15T06:33:40;97503.38;;;3.97;100.00
8894;BME280;4483;48.622;9.230;2022-11-15T06:36:09;97495.72;;;3.97;100.00
8894;BME280;4483;48.622;9.230;2022-11-15T06:38:37;97496.53;;;3.99;100.00
8894;BME280;4483;48.622;9.230;2022-11-15T06:41:05;97497.34;;;4.01;100.00
8894;BME280;4483;48.622;9.230;2022-11-15T06:43:33;97496.53;;;4.01;100.00
8894;BME280;4483;48.622;9.230;2022-11-15T06:46:00;97497.31;;;4.03;100.00
8894;BME280;4483;48.622;9.230;2022-11-15T06:48:27;97498.16;;;4.03;100.00
8894;BME280;4483;48.622;9.230;2022-11-15T06:50:55;97501.50;;;4.05;100.00
8894;BME280;4483;48.622;9.230;2022-11-15T06:53:22;97500.56;;;4.11;100.00
8894;BME280;4483;48.622;9.230;2022-11-15T06:55:50;97507.78;;;4.32;100.00
8894;BME280;4483;48.622;9.230;2022-11-15T06:58:18;97499.13;;;4.74;100.00
8894;BME280;4483;48.622;9.230;2022-11-15T07:00:44;97495.50;;;5.20;100.00
8894;BME280;4483;48.622;9.230;2022-11-15T07:03:11;97489.16;;;5.66;100.00
8894;BME280;4483;48.622;9.230;2022-11-15T07:05:38;97486.59;;;5.98;100.00
8894;BME280;4483;48.622;9.230;2022-11-15T07:08:04;97490.44;;;6.13;100.00
8894;BME280;4483;48.622;9.230;2022-11-15T07:10:31;97493.59;;;6.21;100.00
8894;BME280;4483;48.622;9.230;2022-11-15T07:12:59;97489.06;;;6.31;100.00
8894;BME280;4483;48.622;9.230;2022-11-15T07:15:25;97496.31;;;6.46;100.00
8894;BME280;4483;48.622;9.230;2022-11-15T07:17:52;97486.13;;;6.44;100.00
8894;BME280;4483;48.622;9.230;2022-11-15T07:20:19;97494.38;;;6.52;100.00
8894;BME280;4483;48.622;9.230;2022-11-15T07:22:45;97483.88;;;6.61;100.00
8894;BME280;4483;48.622;9.230;2022-11-15T07:25:12;97478.53;;;6.95;100.00
8894;BME280;4483;48.622;9.230;2022-11-15T07:27:39;97486.72;;;7.32;100.00
8894;BME280;4483;48.622;9.230;2022-11-15T07:30:08;97484.75;;;7.14;100.00
8894;BME280;4483;48.622;9.230;2022-11-15T07:32:35;97484.69;;;7.16;100.00
8894;BME280;4483;48.622;9.230;2022-11-15T07:35:01;97481.63;;;7.31;100.00
8894;BME280;4483;48.622;9.230;2022-11-15T07:37:28;97479.13;;;7.54;100.00
8894;BME280;4483;48.622;9.230;2022-11-15T07:39:55;97477.38;;;7.79;100.00
8894;BME280;4483;48.622;9.230;2022-11-15T07:42:21;97472.97;;;8.52;100.00
8894;BME280;4483;48.622;9.230;2022-11-15T07:45:07;97469.22;;;9.24;100.00
8894;BME280;4483;48.622;9.230;2022-11-15T07:47:34;97470.69;;;9.89;99.67
8894;BME280;4483;48.622;9.230;2022-11-15T07:50:01;97458.94;;;10.41;96.57
8894;BME280;4483;48.622;9.230;2022-11-15T07:52:28;97458.75;;;10.81;96.03
8894;BME280;4483;48.622;9.230;2022-11-15T07:54:54;97454.09;;;11.24;94.28
8894;BME280;4483;48.622;9.230;2022-11-15T07:57:21;97456.34;;;11.64;92.01
8894;BME280;4483;48.622;9.230;2022-11-15T07:59:47;97450.75;;;12.05;90.26
8894;BME280;4483;48.622;9.230;2022-11-15T08:02:15;97446.63;;;12.34;87.34
8894;BME280;4483;48.622;9.230;2022-11-15T08:04:43;97447.94;;;11.77;86.40
8894;BME280;4483;48.622;9.230;2022-11-15T08:07:10;97444.75;;;11.04;87.03
8894;BME280;4483;48.622;9.230;2022-11-15T08:09:36;97453.63;;;10.44;87.21
8894;BME280;4483;48.622;9.230;2022-11-15T08:12:03;97448.88;;;9.98;88.95
8894;BME280;4483;48.622;9.230;2022-11-15T08:14:30;97441.72;;;9.66;90.19
8894;BME280;4483;48.622;9.230;2022-11-15T08:16:57;97442.69;;;9.43;92.03
8894;BME280;4483;48.622;9.230;2022-11-15T08:19:25;97440.19;;;9.22;92.60
8894;BME280;4483;48.622;9.230;2022-11-15T08:21:52;97430.41;;;9.09;93.75
8894;BME280;4483;48.622;9.230;2022-11-15T08:24:18;97440.06;;;9.04;93.76
8894;BME280;4483;48.622;9.230;2022-11-15T08:26:45;97434.38;;;8.96;94.15
8894;BME280;4483;48.622;9.230;2022-11-15T08:29:12;97439.16;;;9.26;95.34
8894;BME280;4483;48.622;9.230;2022-11-15T08:31:39;97436.81;;;9.60;94.63
8894;BME280;4483;48.622;9.230;2022-11-15T08:34:05;97432.91;;;9.71;94.29
8894;BME280;4483;48.622;9.230;2022-11-15T08:36:34;97435.66;;;9.87;93.95
8894;BME280;4483;48.622;9.230;2022-11-15T08:39:00;97428.47;;;10.13;94.33
8894;BME280;4483;48.622;9.230;2022-11-15T08:41:30;97414.66;;;10.52;93.13
8894;BME280;4483;48.622;9.230;2022-11-15T08:43:57;97424.06;;;11.05;92.61
8894;BME280;4483;48.622;9.230;2022-11-15T08:46:24;97420.53;;;11.58;90.38
8894;BME280;4483;48.622;9.230;2022-11-15T08:48:51;97414.84;;;12.17;88.70
8894;BME280;4483;48.622;9.230;2022-11-15T08:51:17;97406.44;;;12.44;87.29
8894;BME280;4483;48.622;9.230;2022-11-15T08:53:45;97400.06;;;12.96;86.08
8894;BME280;4483;48.622;9.230;2022-11-15T08:56:13;97396.38;;;13.44;84.12
8894;BME280;4483;48.622;9.230;2022-11-15T08:58:40;97395.59;;;13.58;83.67
8894;BME280;4483;48.622;9.230;2022-11-15T09:01:15;97393.00;;;13.44;82.65
8894;BME280;4483;48.622;9.230;2022-11-15T09:03:41;97391.47;;;12.96;81.53
8894;BME280;4483;48.622;9.230;2022-11-15T09:06:08;97399.28;;;12.49;81.20
8894;BME280;4483;48.622;9.230;2022-11-15T09:08:35;97399.53;;;12.29;82.36
8894;BME280;4483;48.622;9.230;2022-11-15T09:11:04;97389.94;;;12.62;83.59
8894;BME280;4483;48.622;9.230;2022-11-15T09:13:31;97388.75;;;12.68;83.39
8894;BME280;4483;48.622;9.230;2022-11-15T09:15:58;97384.44;;;12.98;82.68
8894;BME280;4483;48.622;9.230;2022-11-15T09:18:25;97385.84;;;13.33;82.43
8894;BME280;4483;48.622;9.230;2022-11-15T09:20:55;97384.69;;;13.53;81.79
8894;BME280;4483;48.622;9.230;2022-11-15T09:23:21;97389.31;;;13.48;80.20
8894;BME280;4483;48.622;9.230;2022-11-15T09:25:48;97386.72;;;13.76;80.66
8894;BME280;4483;48.622;9.230;2022-11-15T09:28:16;97387.09;;;13.84;80.26
8894;BME280;4483;48.622;9.230;2022-11-15T09:30:43;97381.53;;;13.62;79.75
8894;BME280;4483;48.622;9.230;2022-11-15T09:33:11;97388.53;;;13.32;80.21
8894;BME280;4483;48.622;9.230;2022-11-15T09:35:38;97378.25;;;13.16;80.54
8894;BME280;4483;48.622;9.230;2022-11-15T09:38:06;97376.19;;;13.51;81.05
8894;BME280;4483;48.622;9.230;2022-11-15T09:40:36;97377.84;;;14.08;80.34
8894;BME280;4483;48.622;9.230;2022-11-15T09:43:26;97376.59;;;14.68;79.08
8894;BME280;4483;48.622;9.230;2022-11-15T09:46:03;97367.03;;;14.95;77.35
8894;BME280;4483;48.622;9.230;2022-11-15T09:48:49;97367.47;;;14.63;76.42
8894;BME280;4483;48.622;9.230;2022-11-15T09:51:30;97362.97;;;14.38;76.44
8894;BME280;4483;48.622;9.230;2022-11-15T09:54:05;97363.28;;;14.60;77.39
8894;BME280;4483;48.622;9.230;2022-11-15T09:56:38;97354.84;;;14.83;76.50
8894;BME280;4483;48.622;9.230;2022-11-15T09:59:35;97348.84;;;14.83;76.07
8894;BME280;4483;48.622;9.230;2022-11-15T10:02:17;97351.34;;;14.84;76.35
8894;BME280;4483;48.622;9.230;2022-11-15T10:04:46;97340.59;;;14.64;76.01
8894;BME280;4483;48.622;9.230;2022-11-15T10:07:15;97348.53;;;14.48;76.13
8894;BME280;4483;48.622;9.230;2022-11-15T10:09:47;97350.13;;;14.37;76.77
8894;BME280;4483;48.622;9.230;2022-11-15T10:12:16;97348.03;;;14.29;77.19
8894;BME280;4483;48.622;9.230;2022-11-15T10:14:45;97338.19;;;14.20;77.32
8894;BME280;4483;48.622;9.230;2022-11-15T10:17:26;97331.91;;;14.10;78.41
8894;BME280;4483;48.622;9.230;2022-11-15T10:20:05;97334.19;;;14.02;78.89
8894;BME280;4483;48.622;9.230;2022-11-15T10:22:39;97330.41;;;13.93;79.61
8894;BME280;4483;48.622;9.230;2022-11-15T10:25:17;97331.78;;;13.85;79.57
8894;BME280;4483;48.622;9.230;2022-11-15T10:27:50;97326.25;;;13.77;80.98
8894;BME280;4483;48.622;9.230;2022-11-15T10:30:20;97326.44;;;13.74;81.28
8894;BME280;4483;48.622;9.230;2022-11-15T10:32:48;97332.72;;;13.70;81.64
8894;BME280;4483;48.622;9.230;2022-11-15T10:35:20;97329.59;;;13.65;82.11
8894;BME280;4483;48.622;9.230;2022-11-15T10:37:48;97323.13;;;13.58;82.62
8894;BME280;4483;48.622;9.230;2022-11-15T10:40:17;97320.34;;;13.47;81.93
8894;BME280;4483;48.622;9.230;2022-11-15T10:42:44;97327.66;;;13.40;82.50
8894;BME280;4483;48.622;9.230;2022-11-15T10:45:27;97317.38;;;13.39;81.93
8894;BME280;4483;48.622;9.230;2022-11-15T10:48:21;97307.97;;;13.38;83.25
8894;BME280;4483;48.622;9.230;2022-11-15T10:50:49;97302.13;;;13.34;82.43
8894;BME280;4483;48.622;9.230;2022-11-15T10:53:24;97296.31;;;13.31;83.33
8894;BME280;4483;48.622;9.230;2022-11-15T10:55:56;97297.97;;;13.32;84.25
8894;BME280;4483;48.622;9.230;2022-11-15T10:58:32;97304.19;;;13.29;84.48
8894;BME280;4483;48.622;9.230;2022-11-15T11:01:14;97297.41;;;13.27;84.14
8894;BME280;4483;48.622;9.230;2022-11-15T11:03:42;97296.69;;;13.25;85.11
8894;BME280;4483;48.622;9.230;2022-11-15T11:06:12;97281.44;;;13.20;85.30
8894;BME280;4483;48.622;9.230;2022-11-15T11:08:39;97283.94;;;13.22;85.28
8894;BME280;4483;48.622;9.230;2022-11-15T11:11:06;97286.69;;;13.19;86.59
8894;BME280;4483;48.622;9.230;2022-11-15T11:13:35;97285.28;;;13.13;86.88
8894;BME280;4483;48.622;9.230;2022-11-15T11:16:21;97290.66;;;13.10;87.00
8894;BME280;4483;48.622;9.230;2022-11-15T11:18:59;97285.69;;;13.07;87.47
8894;BME280;4483;48.622;9.230;2022-11-15T11:21:38;97281.31;;;13.07;88.01
8894;BME280;4483;48.622;9.230;2022-11-15T11:24:11;97271.81;;;13.08;87.40
8894;BME280;4483;48.622;9.230;2022-11-15T11:26:44;97275.16;;;13.10;87.95
8894;BME280;4483;48.622;9.230;2022-11-15T11:29:25;97269.78;;;13.13;88.81
8894;BME280;4483;48.622;9.230;2022-11-15T11:32:02;97270.81;;;13.10;88.96
8894;BME280;4483;48.622;9.230;2022-11-15T11:34:45;97267.69;;;13.05;88.72
8894;BME280;4483;48.622;9.230;2022-11-15T11:37:21;97265.16;;;13.04;88.82
8894;BME280;4483;48.622;9.230;2022-11-15T11:39:59;97260.16;;;13.01;89.29
8894;BME280;4483;48.622;9.230;2022-11-15T11:42:37;97263.31;;;13.06;89.40
8894;BME280;4483;48.622;9.230;2022-11-15T11:45:15;97255.28;;;13.10;89.32
8894;BME280;4483;48.622;9.230;2022-11-15T11:47:51;97238.84;;;13.11;89.21
8894;BME280;4483;48.622;9.230;2022-11-15T11:50:25;97237.53;;;13.19;89.95
8894;BME280;4483;48.622;9.230;2022-11-15T11:52:57;97235.34;;;13.27;89.65
8894;BME280;4483;48.622;9.230;2022-11-15T11:55:27;97233.13;;;13.35;89.26
8894;BME280;4483;48.622;9.230;2022-11-15T11:58:05;97236.16;;;13.41;89.21
8894;BME280;4483;48.622;9.230;2022-11-15T12:00:40;97239.22;;;13.48;88.67
8894;BME280;4483;48.622;9.230;2022-11-15T12:03:12;97240.59;;;13.53;88.43
8894;BME280;4483;48.622;9.230;2022-11-15T12:05:42;97229.31;;;13.54;88.73
8894;BME280;4483;48.622;9.230;2022-11-15T12:08:22;97230.88;;;13.57;88.58
8894;BME280;4483;48.622;9.230;2022-11-15T12:10:54;97224.88;;;13.56;88.72
8894;BME280;4483;48.622;9.230;2022-11-15T12:13:26;97223.13;;;13.57;88.17
8894;BME280;4483;48.622;9.230;2022-11-15T12:16:03;97222.47;;;13.53;87.92
8894;BME280;4483;48.622;9.230;2022-11-15T12:18:33;97219.22;;;13.50;87.19
8894;BME280;4483;48.622;9.230;2022-11-15T12:21:04;97215.34;;;13.43;86.59
8894;BME280;4483;48.622;9.230;2022-11-15T12:23:38;97196.81;;;13.36;86.23
8894;BME280;4483;48.622;9.230;2022-11-15T12:26:09;97205.56;;;13.34;86.27
8894;BME280;4483;48.622;9.230;2022-11-15T12:28:40;97205.56;;;13.34;86.04
8894;BME280;4483;48.622;9.230;2022-11-15T12:31:12;97203.09;;;13.32;86.00
8894;BME280;4483;48.622;9.230;2022-11-15T12:33:44;97206.50;;;13.33;86.72
8894;BME280;4483;48.622;9.230;2022-11-15T12:36:32;97200.41;;;13.34;87.04
8894;BME280;4483;48.622;9.230;2022-11-15T12:39:02;97207.06;;;13.38;86.97
8894;BME280;4483;48.622;9.230;2022-11-15T12:41:30;97200.13;;;13.38;86.92
8894;BME280;4483;48.622;9.230;2022-11-15T12:43:57;97206.78;;;13.42;86.53
8894;BME280;4483;48.622;9.230;2022-11-15T12:49:44;97194.56;;;13.44;85.79
8894;BME280;4483;48.622;9.230;2022-11-15T12:52:11;97189.13;;;13.49;87.19
8894;BME280;4483;48.622;9.230;2022-11-15T12:55:00;97186.25;;;13.53;86.33
8894;BME280;4483;48.622;9.230;2022-11-15T12:57:40;97185.84;;;13.59;86.81
8894;BME280;4483;48.622;9.230;2022-11-15T13:03:36;97185.91;;;13.72;86.77
8894;BME280;4483;48.622;9.230;2022-11-15T13:06:40;97180.53;;;13.75;86.01
8894;BME280;4483;48.622;9.230;2022-11-15T13:15:38;97164.13;;;13.62;84.16
8894;BME280;4483;48.622;9.230;2022-11-15T13:18:30;97161.81;;;13.57;84.52
8894;BME280;4483;48.622;9.230;2022-11-15T13:20:57;97165.34;;;13.56;85.67
8894;BME280;4483;48.622;9.230;2022-11-15T13:23:24;97153.94;;;13.59;86.21
8894;BME280;4483;48.622;9.230;2022-11-15T13:26:07;97155.41;;;13.63;85.08
8894;BME280;4483;48.622;9.230;2022-11-15T13:28:38;97154.63;;;13.62;85.58
8894;BME280;4483;48.622;9.230;2022-11-15T13:31:22;97150.25;;;13.63;85.32
8894;BME280;4483;48.622;9.230;2022-11-15T13:33:50;97144.31;;;13.61;86.42
8894;BME280;4483;48.622;9.230;2022-11-15T13:36:20;97142.56;;;13.61;85.57
8894;BME280;4483;48.622;9.230;2022-11-15T13:38:54;97139.16;;;13.61;85.75
8894;BME280;4483;48.622;9.230;2022-11-15T13:41:23;97139.25;;;13.59;86.61
8894;BME280;4483;48.622;9.230;2022-11-15T13:43:51;97127.44;;;13.55;86.26
8894;BME280;4483;48.622;9.230;2022-11-15T13:46:21;97130.13;;;13.54;86.39
8894;BME280;4483;48.622;9.230;2022-11-15T13:48:52;97124.53;;;13.47;85.90
8894;BME280;4483;48.622;9.230;2022-11-15T13:51:21;97117.25;;;13.40;86.80
8894;BME280;4483;48.622;9.230;2022-11-15T13:53:53;97112.53;;;13.32;86.89
8894;BME280;4483;48.622;9.230;2022-11-15T13:56:21;97104.25;;;13.27;87.11